createdAt,value
2024-01-05T00:02:05.553Z,96493.94
2024-01-05T00:04:32.358Z,96423.16
2024-01-05T00:06:59.178Z,96471.66
2024-01-05T00:09:25.902Z,96492.56
2024-01-05T00:11:53.067Z,96390.25
2024-01-05T00:14:20.281Z,96500.44
2024-01-05T00:16:47.809Z,96472.28
2024-01-05T00:19:14.747Z,96514.22
2024-01-05T00:21:41.599Z,96500.00
2024-01-05T00:24:08.465Z,96504.69
2024-01-05T00:26:35.190Z,96356.34
2024-01-05T00:29:03.799Z,96459.75
2024-01-05T00:31:30.508Z,96511.16
2024-01-05T00:33:57.574Z,96509.97
2024-01-05T00:36:24.391Z,96518.41
2024-01-05T00:38:51.159Z,96492.03
2024-01-05T00:41:18.121Z,96488.69
2024-01-05T00:43:44.771Z,96522.97
2024-01-05T00:46:11.491Z,96538.59
2024-01-05T00:48:38.438Z,96509.25
2024-01-05T00:51:05.468Z,96484.72
2024-01-05T00:53:32.278Z,96532.97
2024-01-05T00:55:59.251Z,96536.22
2024-01-05T00:58:26.096Z,96420.97
2024-01-05T01:00:52.993Z,96555.03
2024-01-05T01:03:19.954Z,96529.66
2024-01-05T01:05:46.760Z,96510.28
2024-01-05T01:08:16.492Z,96531.47
2024-01-05T01:10:43.248Z,96531.84
2024-01-05T01:13:10.046Z,96530.59
2024-01-05T01:15:36.920Z,96485.53
2024-01-05T01:18:04.138Z,96515.06
2024-01-05T01:20:31.004Z,96447.38
2024-01-05T01:22:57.785Z,96542.28
2024-01-05T01:25:24.553Z,96541.13
2024-01-05T01:27:51.284Z,96544.94
2024-01-05T01:30:18.083Z,96401.72
2024-01-05T01:32:44.932Z,96526.22
2024-01-05T01:35:11.755Z,96436.78
2024-01-05T01:37:38.474Z,96537.91
2024-01-05T01:40:06.418Z,96485.56
2024-01-05T01:42:34.387Z,96490.16
2024-01-05T01:45:01.673Z,96546.72
2024-01-05T01:47:29.548Z,96521.00
2024-01-05T01:49:58.115Z,96556.09
2024-01-05T01:52:25.857Z,96499.56
2024-01-05T01:54:52.792Z,96577.38
2024-01-05T01:57:20.229Z,96549.63
2024-01-05T01:59:47.283Z,96550.09
2024-01-05T02:02:14.774Z,96560.41
2024-01-05T02:04:42.869Z,96569.78
2024-01-05T02:07:10.023Z,96571.91
2024-01-05T02:09:36.872Z,96574.75
2024-01-05T02:12:03.945Z,96517.31
2024-01-05T02:14:30.773Z,96587.59
2024-01-05T02:16:57.502Z,96413.44
2024-01-05T02:19:25.282Z,96511.38
2024-01-05T02:21:56.011Z,96540.56
2024-01-05T02:24:22.853Z,96538.50
2024-01-05T02:26:49.882Z,96544.47
2024-01-05T02:29:23.010Z,96605.53
2024-01-05T02:31:50.686Z,96623.81
2024-01-05T02:34:17.564Z,96602.44
2024-01-05T02:36:45.109Z,96552.97
2024-01-05T02:39:12.924Z,96495.53
2024-01-05T02:41:39.749Z,96615.09
2024-01-05T02:44:06.476Z,96611.44
2024-01-05T02:46:34.950Z,96623.34
2024-01-05T02:49:02.125Z,96621.50
2024-01-05T02:51:29.045Z,96568.28
2024-01-05T02:53:56.133Z,96635.34
2024-01-05T02:56:24.268Z,96605.75
2024-01-05T02:58:54.509Z,96613.06
2024-01-05T03:01:21.488Z,96638.91
2024-01-05T03:03:51.621Z,96630.22
2024-01-05T03:06:20.607Z,96574.53
2024-01-05T03:08:47.834Z,96612.81
2024-01-05T03:11:14.696Z,96389.31
2024-01-05T03:13:41.523Z,96559.59
2024-01-05T03:16:08.381Z,96613.28
2024-01-05T03:18:35.436Z,96477.22
2024-01-05T03:21:02.410Z,96626.09
2024-01-05T03:23:29.133Z,96585.50
2024-01-05T03:25:58.084Z,96632.28
2024-01-05T03:28:25.714Z,96640.16
2024-01-05T03:30:53.402Z,96637.75
2024-01-05T03:33:23.588Z,96639.81
2024-01-05T03:35:50.548Z,96614.41
2024-01-05T03:38:17.456Z,96559.88
2024-01-05T03:40:44.322Z,96590.16
2024-01-05T03:43:11.003Z,96480.09
2024-01-05T03:45:37.980Z,96403.56
2024-01-05T03:48:05.595Z,96665.50
2024-01-05T03:50:32.434Z,96611.44
2024-01-05T03:52:59.189Z,96682.13
2024-01-05T03:55:25.869Z,96642.63
2024-01-05T03:57:52.617Z,96651.44
2024-01-05T04:00:19.605Z,96688.97
2024-01-05T04:02:46.786Z,96637.22
2024-01-05T04:05:13.734Z,96597.25
2024-01-05T04:07:40.705Z,96644.75
2024-01-05T04:10:07.992Z,96679.41
2024-01-05T04:12:34.828Z,96572.28
2024-01-05T04:15:01.779Z,96685.09
2024-01-05T04:17:28.594Z,96686.81
2024-01-05T04:19:55.388Z,96679.56
2024-01-05T04:22:22.262Z,96676.47
2024-01-05T04:24:49.005Z,96713.91
2024-01-05T04:27:15.742Z,96709.66
2024-01-05T04:29:42.479Z,96719.75
2024-01-05T04:32:09.236Z,96690.03
2024-01-05T04:34:36.036Z,96642.53
2024-01-05T04:37:02.799Z,96691.72
2024-01-05T04:39:29.613Z,96721.09
2024-01-05T04:41:56.484Z,96731.50
2024-01-05T04:44:23.212Z,96737.78
2024-01-05T04:46:49.948Z,96738.06
2024-01-05T04:49:16.825Z,96732.13
2024-01-05T04:51:44.616Z,96710.59
2024-01-05T04:54:11.740Z,96762.03
2024-01-05T04:56:38.589Z,96781.28
2024-01-05T04:59:05.397Z,96727.94
2024-01-05T05:01:32.382Z,96790.13
2024-01-05T05:03:59.222Z,96743.44
2024-01-05T05:06:25.940Z,96758.91
2024-01-05T05:08:52.898Z,96732.13
2024-01-05T05:11:19.881Z,96759.38
2024-01-05T05:13:47.535Z,96689.16
2024-01-05T05:16:14.281Z,96819.31
2024-01-05T05:18:42.956Z,96817.28
2024-01-05T05:21:09.973Z,96731.22
2024-01-05T05:23:38.824Z,96829.03
2024-01-05T05:26:05.924Z,96740.84
2024-01-05T05:28:32.821Z,96821.47
2024-01-05T05:30:59.936Z,96822.41
2024-01-05T05:33:28.312Z,96696.00
2024-01-05T05:35:55.349Z,96738.06
2024-01-05T05:38:22.076Z,96843.66
2024-01-05T05:40:48.742Z,96832.50
2024-01-05T05:43:15.856Z,96841.91
2024-01-05T05:45:42.775Z,96854.47
2024-01-05T05:48:09.652Z,96860.59
2024-01-05T05:50:36.515Z,96793.72
2024-01-05T05:53:03.347Z,96870.06
2024-01-05T05:55:30.014Z,96856.06
2024-01-05T05:57:58.715Z,96853.13
2024-01-05T06:00:26.288Z,96786.81
2024-01-05T06:02:53.091Z,96257.84
2024-01-05T06:05:20.004Z,96768.13
2024-01-05T06:07:47.028Z,96828.06
2024-01-05T06:10:14.181Z,96856.91
2024-01-05T06:12:41.015Z,96404.22
2024-01-05T06:15:08.549Z,96859.41
2024-01-05T06:17:35.458Z,96767.84
2024-01-05T06:20:02.206Z,96855.63
2024-01-05T06:22:28.982Z,96812.34
2024-01-05T06:24:55.739Z,96768.03
2024-01-05T06:27:29.080Z,96787.22
2024-01-05T06:30:02.478Z,96868.06
2024-01-05T06:32:29.340Z,96869.38
2024-01-05T06:34:56.119Z,96872.34
2024-01-05T06:37:22.858Z,96886.44
2024-01-05T06:39:49.609Z,96882.69
2024-01-05T06:42:16.338Z,96875.31
2024-01-05T06:44:43.128Z,96886.94
2024-01-05T06:47:10.029Z,96884.72
2024-01-05T06:49:37.661Z,96891.44
2024-01-05T06:52:04.744Z,96894.28
2024-01-05T06:54:31.555Z,96901.91
2024-01-05T06:56:58.386Z,96899.75
2024-01-05T06:59:27.344Z,96905.25
2024-01-05T07:01:54.027Z,96894.06
2024-01-05T07:04:20.707Z,96909.84
2024-01-05T07:06:47.437Z,96919.25
2024-01-05T07:09:15.426Z,96905.72
2024-01-05T07:11:42.649Z,96915.84
2024-01-05T07:14:09.668Z,96698.13
2024-01-05T07:16:36.464Z,96902.06
2024-01-05T07:19:03.383Z,96882.16
2024-01-05T07:21:30.207Z,96947.38
2024-01-05T07:23:57.011Z,96933.44
2024-01-05T07:26:24.035Z,96785.47
2024-01-05T07:28:51.164Z,96896.41
2024-01-05T07:31:26.895Z,96932.56
2024-01-05T07:33:53.732Z,96932.50
2024-01-05T07:36:20.672Z,96934.78
2024-01-05T07:38:47.530Z,96882.69
2024-01-05T07:41:18.059Z,96935.50
2024-01-05T07:43:45.291Z,96932.28
2024-01-05T07:46:11.992Z,96891.84
2024-01-05T07:48:42.241Z,96879.44
2024-01-05T07:51:10.209Z,96847.56
2024-01-05T07:53:37.076Z,96908.56
2024-01-05T07:56:04.485Z,96940.91
2024-01-05T07:58:31.270Z,96831.03
2024-01-05T08:00:58.971Z,96883.25
2024-01-05T08:03:25.969Z,96965.38
2024-01-05T08:05:52.877Z,96946.09
2024-01-05T08:08:20.184Z,96956.66
2024-01-05T08:10:47.074Z,96865.09
2024-01-05T08:13:13.852Z,96965.91
2024-01-05T08:15:40.697Z,96971.34
2024-01-05T08:18:08.154Z,96936.88
2024-01-05T08:20:35.445Z,96969.84
2024-01-05T08:23:03.083Z,96893.31
2024-01-05T08:25:29.972Z,96973.28
2024-01-05T08:27:56.692Z,96903.88
2024-01-05T08:30:23.667Z,96953.00
2024-01-05T08:32:56.196Z,96975.00
2024-01-05T08:35:23.220Z,96946.34
2024-01-05T08:37:49.944Z,96861.13
2024-01-05T08:40:18.826Z,96959.94
2024-01-05T08:42:47.193Z,96964.75
2024-01-05T08:45:18.121Z,96859.66
2024-01-05T08:47:45.129Z,96822.16
2024-01-05T08:50:12.029Z,96945.75
2024-01-05T08:52:39.175Z,96772.16
2024-01-05T08:55:06.680Z,96956.19
2024-01-05T08:57:33.447Z,96876.53
2024-01-05T09:00:00.282Z,96893.31
2024-01-05T09:02:27.394Z,96898.09
2024-01-05T09:04:54.195Z,96382.59
2024-01-05T09:07:20.983Z,96908.84
2024-01-05T09:09:47.779Z,96820.09
2024-01-05T09:12:14.825Z,96946.72
2024-01-05T09:14:42.401Z,96963.03
2024-01-05T09:17:09.171Z,96898.13
2024-01-05T09:19:36.720Z,96943.88
2024-01-05T09:22:03.917Z,96984.13
2024-01-05T09:24:30.886Z,96810.56
2024-01-05T09:26:57.648Z,96769.19
2024-01-05T09:29:24.405Z,96909.22
2024-01-05T09:31:52.440Z,96596.25
2024-01-05T09:34:19.431Z,96929.06
2024-01-05T09:36:46.301Z,96922.66
2024-01-05T09:39:13.729Z,96925.03
2024-01-05T09:41:46.902Z,96595.06
2024-01-05T09:44:14.050Z,96895.97
2024-01-05T09:46:41.944Z,96927.34
2024-01-05T09:49:10.227Z,96929.72
2024-01-05T09:51:37.570Z,96744.38
2024-01-05T09:54:04.652Z,96930.84
2024-01-05T09:56:32.592Z,96929.22
2024-01-05T09:59:00.501Z,96901.13
2024-01-05T10:01:34.237Z,96925.63
2024-01-05T10:04:03.206Z,96914.53
2024-01-05T10:06:31.848Z,96881.16
2024-01-05T10:09:02.289Z,96783.34
2024-01-05T10:11:35.413Z,96777.78
2024-01-05T10:14:06.784Z,96891.47
2024-01-05T10:16:40.465Z,96883.59
2024-01-05T10:19:16.235Z,96886.75
2024-01-05T10:21:45.750Z,96790.84
2024-01-05T10:24:24.587Z,96850.88
2024-01-05T10:27:12.124Z,96891.88
2024-01-05T10:29:44.681Z,96868.44
2024-01-05T10:32:21.242Z,96878.69
2024-01-05T10:34:50.815Z,96781.22
2024-01-05T10:37:19.416Z,96750.22
2024-01-05T10:39:52.766Z,96733.88
2024-01-05T10:42:28.804Z,96727.50
2024-01-05T10:44:58.101Z,96842.44
2024-01-05T10:47:33.155Z,96842.06
2024-01-05T10:50:00.277Z,96834.13
2024-01-05T10:52:34.715Z,96834.94
2024-01-05T10:55:05.497Z,96836.94
2024-01-05T10:57:36.942Z,96832.53
2024-01-05T11:00:06.448Z,96691.13
2024-01-05T11:02:45.274Z,96830.91
2024-01-05T11:05:15.457Z,96799.88
2024-01-05T11:07:44.171Z,96842.38
2024-01-05T11:10:35.129Z,96837.16
2024-01-05T11:13:10.806Z,96830.03
2024-01-05T11:15:40.651Z,96832.41
2024-01-05T11:18:13.607Z,96835.19
2024-01-05T11:21:04.008Z,96752.00
2024-01-05T11:23:34.689Z,96519.41
2024-01-05T11:26:01.591Z,96742.47
2024-01-05T11:28:39.912Z,96772.53
2024-01-05T11:31:06.835Z,96814.56
2024-01-05T11:33:50.058Z,96829.63
2024-01-05T11:36:51.110Z,96821.69
2024-01-05T11:39:45.653Z,96816.47
2024-01-05T11:42:34.662Z,96806.44
2024-01-05T11:45:10.340Z,96789.81
2024-01-05T11:47:42.104Z,96734.09
2024-01-05T11:50:32.464Z,96650.00
2024-01-05T11:53:18.232Z,96811.06
2024-01-05T11:55:52.053Z,96809.00
2024-01-05T11:58:21.436Z,96818.13
2024-01-05T12:00:50.009Z,96783.94
2024-01-05T12:03:18.675Z,96810.81
2024-01-05T12:05:51.981Z,96717.91
2024-01-05T12:08:19.495Z,96694.03
2024-01-05T12:10:46.159Z,96817.91
2024-01-05T12:13:12.872Z,96811.41
2024-01-05T12:15:49.694Z,96818.53
2024-01-05T12:18:27.984Z,96734.44
2024-01-05T12:21:02.807Z,96781.38
2024-01-05T12:23:32.383Z,96739.88
2024-01-05T12:26:09.768Z,96824.19
2024-01-05T12:28:40.942Z,96830.56
2024-01-05T12:31:14.594Z,96791.78
2024-01-05T12:33:43.430Z,96746.38
2024-01-05T12:36:11.443Z,96831.47
2024-01-05T12:38:38.727Z,96843.19
2024-01-05T12:41:09.802Z,96844.50
2024-01-05T12:43:54.934Z,96808.78
2024-01-05T12:46:24.437Z,96845.38
2024-01-05T12:48:52.090Z,96813.31
2024-01-05T12:51:24.170Z,96787.31
2024-01-05T12:54:04.827Z,96798.06
2024-01-05T12:56:32.665Z,96617.84
2024-01-05T12:58:59.737Z,96855.34
2024-01-05T13:01:26.848Z,96706.00
2024-01-05T13:03:55.678Z,96840.31
2024-01-05T13:06:31.579Z,96855.44
2024-01-05T13:08:58.859Z,96834.06
2024-01-05T13:11:26.304Z,96811.38
2024-01-05T13:13:54.083Z,96864.16
2024-01-05T13:16:25.942Z,96813.00
2024-01-05T13:18:52.797Z,96871.88
2024-01-05T13:21:19.966Z,96545.72
2024-01-05T13:23:48.345Z,96872.97
2024-01-05T13:26:15.225Z,96861.81
2024-01-05T13:28:42.312Z,96850.72
2024-01-05T13:31:10.042Z,96793.94
2024-01-05T13:33:37.255Z,96843.59
2024-01-05T13:36:04.607Z,96861.16
2024-01-05T13:38:31.533Z,96855.63
2024-01-05T13:40:58.385Z,96865.63
2024-01-05T13:43:26.475Z,96869.22
2024-01-05T13:45:55.484Z,96860.94
2024-01-05T13:48:22.832Z,96792.56
2024-01-05T13:50:49.717Z,96870.56
2024-01-05T13:53:16.569Z,96849.88
2024-01-05T13:55:43.335Z,96871.78
2024-01-05T13:58:10.307Z,96801.81
2024-01-05T14:00:37.458Z,96886.97
2024-01-05T14:03:05.500Z,96877.41
2024-01-05T14:05:32.597Z,96878.22
2024-01-05T14:08:00.532Z,96877.44
2024-01-05T14:10:27.319Z,96829.28
2024-01-05T14:12:54.763Z,96875.84
2024-01-05T14:15:22.540Z,96888.53
2024-01-05T14:17:49.500Z,96490.88
2024-01-05T14:20:16.491Z,96899.69
2024-01-05T14:22:43.277Z,96887.34
2024-01-05T14:25:16.976Z,96724.97
2024-01-05T14:27:43.699Z,96886.56
2024-01-05T14:30:10.969Z,96890.53
2024-01-05T14:32:38.281Z,96894.50
2024-01-05T14:35:08.455Z,96897.22
2024-01-05T14:37:37.998Z,96898.81
2024-01-05T14:40:07.195Z,96886.84
2024-01-05T14:42:34.061Z,96873.59
2024-01-05T14:45:01.039Z,96741.75
2024-01-05T14:47:28.410Z,96719.38
2024-01-05T14:49:55.364Z,96793.78
2024-01-05T14:52:22.155Z,96896.06
2024-01-05T14:54:48.967Z,96782.78
2024-01-05T14:57:15.864Z,96872.44
2024-01-05T14:59:45.274Z,96851.16
2024-01-05T15:02:11.965Z,96900.50
2024-01-05T15:04:38.685Z,96851.78
2024-01-05T15:07:05.510Z,96880.38
2024-01-05T15:09:32.356Z,96910.19
2024-01-05T15:11:59.948Z,96785.72
2024-01-05T15:14:28.125Z,96810.56
2024-01-05T15:16:54.871Z,96839.06
2024-01-05T15:19:21.716Z,96909.50
2024-01-05T15:21:48.603Z,96914.16
2024-01-05T15:24:15.540Z,96905.81
2024-01-05T15:26:46.816Z,96927.44
2024-01-05T15:29:15.128Z,96913.91
2024-01-05T15:31:42.097Z,96888.97
2024-01-05T15:34:08.962Z,96926.22
2024-01-05T15:36:35.929Z,96926.66
2024-01-05T15:39:02.808Z,96925.84
2024-01-05T15:41:29.782Z,96939.59
2024-01-05T15:43:57.265Z,96866.22
2024-01-05T15:46:27.701Z,96939.88
2024-01-05T15:48:56.175Z,96926.47
2024-01-05T15:51:26.373Z,96955.03
2024-01-05T15:53:57.519Z,96951.25
2024-01-05T15:56:26.461Z,96862.50
2024-01-05T15:58:53.379Z,96958.69
2024-01-05T16:01:20.149Z,96958.88
2024-01-05T16:03:48.646Z,96963.47
2024-01-05T16:06:20.333Z,96853.06
2024-01-05T16:08:49.860Z,96792.31
2024-01-05T16:11:16.941Z,96870.22
2024-01-05T16:13:43.981Z,96887.59
2024-01-05T16:16:19.256Z,96877.84
2024-01-05T16:18:48.500Z,96948.59
2024-01-05T16:21:21.167Z,96982.66
2024-01-05T16:23:48.805Z,97003.22
2024-01-05T16:26:15.822Z,96989.78
2024-01-05T16:28:42.505Z,96982.78
2024-01-05T16:31:09.962Z,96964.91
2024-01-05T16:33:40.053Z,96914.94
2024-01-05T16:36:07.866Z,97005.69
2024-01-05T16:38:38.551Z,96998.34
2024-01-05T16:41:10.289Z,97001.84
2024-01-05T16:43:40.069Z,97006.91
2024-01-05T16:46:06.828Z,96984.78
2024-01-05T16:48:34.179Z,97000.81
2024-01-05T16:51:01.421Z,96673.41
2024-01-05T16:53:29.780Z,97018.16
2024-01-05T16:55:57.402Z,96878.22
2024-01-05T16:58:24.286Z,96942.72
2024-01-05T17:00:51.308Z,96908.63
2024-01-05T17:03:18.999Z,97034.03
2024-01-05T17:05:47.713Z,97019.09
2024-01-05T17:08:15.526Z,96985.94
2024-01-05T17:10:42.399Z,96709.22
2024-01-05T17:13:09.093Z,97014.94
2024-01-05T17:15:36.114Z,96912.91
2024-01-05T17:18:03.339Z,96855.50
2024-01-05T17:20:30.597Z,96962.44
2024-01-05T17:22:58.683Z,97019.75
2024-01-05T17:25:25.581Z,96691.44
2024-01-05T17:27:52.910Z,97017.91
2024-01-05T17:30:19.826Z,96941.50
2024-01-05T17:32:46.919Z,96959.41
2024-01-05T17:35:13.918Z,97013.03
2024-01-05T17:37:40.729Z,96999.22
2024-01-05T17:40:08.921Z,96957.75
2024-01-05T17:42:36.454Z,97015.16
2024-01-05T17:45:03.916Z,97005.13
2024-01-05T17:47:31.406Z,96903.28
2024-01-05T17:49:59.278Z,97009.78
2024-01-05T17:52:26.273Z,97012.47
2024-01-05T17:54:53.698Z,97012.03
2024-01-05T17:57:22.875Z,97006.78
2024-01-05T17:59:51.953Z,97003.72
2024-01-05T18:02:18.652Z,97009.38
2024-01-05T18:04:46.661Z,97027.44
2024-01-05T18:07:13.683Z,97012.38
2024-01-05T18:09:42.278Z,97010.44
2024-01-05T18:12:09.269Z,97019.34
2024-01-05T18:14:37.099Z,97007.69
2024-01-05T18:17:05.132Z,97004.22
2024-01-05T18:19:32.123Z,97016.41
2024-01-05T18:21:59.345Z,97018.16
2024-01-05T18:24:26.164Z,97011.38
2024-01-05T18:26:52.878Z,97017.78
2024-01-05T18:29:25.340Z,97037.06
2024-01-05T18:31:58.570Z,97026.19
2024-01-05T18:34:26.993Z,97006.81
2024-01-05T18:36:54.368Z,97032.50
2024-01-05T18:39:21.438Z,97048.09
2024-01-05T18:41:48.228Z,97053.00
2024-01-05T18:44:15.683Z,97056.34
2024-01-05T18:46:43.034Z,97058.50
2024-01-05T18:49:11.476Z,97034.69
2024-01-05T18:51:38.460Z,97049.47
2024-01-05T18:54:05.851Z,97044.88
2024-01-05T18:56:33.828Z,97051.75
2024-01-05T18:59:00.801Z,97033.19
2024-01-05T19:01:27.708Z,96940.59
2024-01-05T19:03:54.578Z,97038.13
2024-01-05T19:06:22.034Z,97049.94
2024-01-05T19:08:48.934Z,97048.09
2024-01-05T19:11:15.882Z,97050.63
2024-01-05T19:13:43.635Z,97037.56
2024-01-05T19:16:10.750Z,97047.88
2024-01-05T19:18:37.824Z,97023.78
2024-01-05T19:21:06.005Z,97030.22
2024-01-05T19:23:32.860Z,97035.03
2024-01-05T19:25:59.991Z,97041.47
2024-01-05T19:28:28.059Z,97039.38
2024-01-05T19:30:55.836Z,97006.91
2024-01-05T19:33:23.078Z,97032.22
2024-01-05T19:35:50.162Z,97032.91
2024-01-05T19:38:17.260Z,97032.66
2024-01-05T19:40:45.045Z,97041.63
2024-01-05T19:43:12.567Z,97033.16
2024-01-05T19:45:39.563Z,97034.03
2024-01-05T19:48:07.249Z,97026.31
2024-01-05T19:50:35.263Z,96756.78
2024-01-05T19:53:03.049Z,97033.81
2024-01-05T19:55:30.364Z,97012.28
2024-01-05T19:57:57.140Z,97024.91
2024-01-05T20:00:24.523Z,96998.91
2024-01-05T20:02:51.376Z,96991.81
2024-01-05T20:05:18.138Z,97035.19
2024-01-05T20:07:45.035Z,97042.19
2024-01-05T20:10:12.171Z,97036.78
2024-01-05T20:12:44.369Z,97042.53
2024-01-05T20:15:11.295Z,96929.22
2024-01-05T20:17:38.027Z,97032.44
2024-01-05T20:20:05.663Z,97029.47
2024-01-05T20:22:32.913Z,96919.81
2024-01-05T20:24:59.734Z,97030.38
2024-01-05T20:27:37.129Z,97026.94
2024-01-05T20:30:05.117Z,97031.06
2024-01-05T20:32:31.949Z,96996.13
2024-01-05T20:34:58.755Z,96944.41
2024-01-05T20:37:25.467Z,97023.97
2024-01-05T20:39:52.264Z,97005.19
2024-01-05T20:42:19.138Z,97039.53
2024-01-05T20:44:45.871Z,97036.97
2024-01-05T20:47:12.596Z,97041.25
2024-01-05T20:49:39.400Z,96815.91
2024-01-05T20:52:06.473Z,97038.09
2024-01-05T20:54:33.172Z,97029.41
2024-01-05T20:56:59.877Z,97015.16
2024-01-05T20:59:26.688Z,96971.09
2024-01-05T21:01:53.888Z,97030.84
2024-01-05T21:04:21.603Z,97032.56
2024-01-05T21:06:49.353Z,97017.22
2024-01-05T21:09:16.572Z,96728.50
2024-01-05T21:11:43.354Z,96925.78
2024-01-05T21:14:10.041Z,97023.72
2024-01-05T21:16:40.996Z,97025.38
2024-01-05T21:19:08.851Z,96965.97
2024-01-05T21:21:44.231Z,97013.00
2024-01-05T21:24:11.057Z,97022.16
2024-01-05T21:26:46.924Z,97010.25
2024-01-05T21:29:15.753Z,97001.66
2024-01-05T21:31:49.726Z,97015.47
2024-01-05T21:34:17.436Z,96989.78
2024-01-05T21:36:44.552Z,96976.22
2024-01-05T21:39:11.473Z,97015.66
2024-01-05T21:41:40.605Z,96914.75
2024-01-05T21:44:07.912Z,97013.56
2024-01-05T21:46:38.053Z,97024.41
2024-01-05T21:49:05.590Z,97007.22
2024-01-05T21:51:32.417Z,96560.94
2024-01-05T21:53:59.435Z,97004.53
2024-01-05T21:56:26.339Z,96924.22
2024-01-05T21:58:53.225Z,96987.56
2024-01-05T22:01:20.059Z,96982.97
2024-01-05T22:03:46.924Z,96907.66
2024-01-05T22:06:16.982Z,96985.28
2024-01-05T22:08:43.722Z,96727.25
2024-01-05T22:11:10.464Z,96987.09
2024-01-05T22:13:37.244Z,96983.66
2024-01-05T22:16:04.106Z,96985.06
2024-01-05T22:18:34.435Z,96986.44
2024-01-05T22:21:10.290Z,96981.63
2024-01-05T22:23:41.314Z,97001.19
2024-01-05T22:26:08.956Z,96982.63
2024-01-05T22:28:38.513Z,96975.88
2024-01-05T22:31:11.584Z,96966.59
2024-01-05T22:33:41.755Z,96944.72
2024-01-05T22:36:15.836Z,96949.97
2024-01-05T22:38:42.548Z,96946.31
2024-01-05T22:41:10.784Z,96976.44
2024-01-05T22:43:38.797Z,96954.91
2024-01-05T22:46:05.931Z,96834.72
2024-01-05T22:48:36.033Z,96958.91
2024-01-05T22:51:03.673Z,96951.56
2024-01-05T22:53:30.680Z,96619.09
2024-01-05T22:55:57.504Z,96817.75
2024-01-05T22:58:24.254Z,96959.38
2024-01-05T23:00:51.063Z,96933.28
2024-01-05T23:03:17.993Z,96954.56
2024-01-05T23:05:44.753Z,96886.72
2024-01-05T23:08:11.684Z,96973.13
2024-01-05T23:10:38.454Z,96982.53
2024-01-05T23:13:05.812Z,96977.28
2024-01-05T23:15:36.144Z,96872.97
2024-01-05T23:18:03.195Z,96928.31
2024-01-05T23:20:31.566Z,96951.00
2024-01-05T23:22:58.422Z,96973.38
2024-01-05T23:25:25.085Z,96912.84
2024-01-05T23:27:51.899Z,96958.91
2024-01-05T23:30:18.916Z,96954.31
2024-01-05T23:32:45.818Z,96909.50
2024-01-05T23:35:13.454Z,96956.00
2024-01-05T23:37:40.182Z,96955.47
2024-01-05T23:40:07.573Z,96948.34
2024-01-05T23:42:34.344Z,96948.59
2024-01-05T23:45:01.052Z,96556.22
2024-01-05T23:47:27.938Z,96932.31
2024-01-05T23:49:55.899Z,96929.56
2024-01-05T23:52:22.830Z,96934.31
2024-01-05T23:54:49.711Z,96804.72
2024-01-05T23:57:16.544Z,96955.25
2024-01-05T23:59:56.909Z,96941.50
